Amarillo, TX

8:43 PM CDT on July 07, 2015 (GMT -0500)
Amarillo International | | Change Station
CLOSE
Current Station
Airport
Location: Amarillo,
Elevation: 3606 ft
Nearby Weather Stations

Elev 3606 ft 35.22 °N, 101.72 °W | Updated 26 minutes ago

Overcast
Overcast
64 °F
Feels Like 64 °F
N
9
Wind Variable Wind from ENE

Today
High -- | Low -- °F
--% Chance of Precip.
Yesterday
High -- | Low -- °F
Precip. -- in
6:38 AM 9:04 PM
Waning Gibbous, 59% visible
Pressure 30.10 in
Visibility 3.0 miles
Clouds Mostly Cloudy 2000 ft
Overcast 3100 ft
Dew Point 58 °F
Humidity 80%
Rainfall 0.07 in
Snow Depth Not available.
UV 0 out of 12
Pollen .50 out of 12
Air Quality Not available.
Flu Activity Not available.
SPECI KAMA 080117Z 07008KT 3SM HZ BKN020 OVC031 18/14 A3010 RMK AO2 T01780144

More Conditions Fewer Conditions

Pressure 30.10 in
Visibility 3.0 miles
Clouds Mostly Cloudy 2000 ft
Overcast 3100 ft
Dew Point 58 °F
Humidity 80%
Rainfall 0.07 in
Snow Depth Not available.
UV 0 out of 12
Pollen .50 out of 12
Air Quality Not available.
Flu Activity Not available.
SPECI KAMA 080117Z 07008KT 3SM HZ BKN020 OVC031 18/14 A3010 RMK AO2 T01780144

More Conditions Fewer Conditions

10-Day Weather Forecast

×

Almanac

Astronomy

Jul. 07, 2015 Rise Set
Actual Time
Civil Twilight
Nautical Twilight
Astronomical Twilight
Moon
Length of Visible Light
Length of Day
Tomorrow will be .
, % of the Moon is Illuminated

Today's Extremes

State Highs State Lows

Community

WunderPhotos

Upload Photos

1,836,002 photos uploaded!

WunderBlogs® & News

Nearby

Air Quality

  Air Quality AQ Index Pollutant
Not available.

Snow Depth

Station Depth Elevation

Earthquake Activity

City Distance Mag. Time & Date
Minimum magnitude displayed is 2.5.

Coastal Water Temperatures

Place Temperature

Stations

Nearby Weather Stations

Station Location Temp. Windchill Dew Point Humidity Wind Precip. Elev Updated Type